createdAt,value
2022-07-29T00:04:05.709Z,101113.00
2022-07-29T00:09:09.367Z,101106.09
2022-07-29T00:14:14.470Z,101096.81
2022-07-29T00:19:18.140Z,101096.81
2022-07-29T00:24:21.626Z,101094.13
2022-07-29T00:29:34.885Z,101082.06
2022-07-29T00:35:07.549Z,101077.75
2022-07-29T00:40:11.515Z,101074.22
2022-07-29T00:45:17.100Z,101071.94
2022-07-29T00:50:20.653Z,101074.00
2022-07-29T00:55:24.399Z,101069.16
2022-07-29T01:00:30.249Z,101068.72
2022-07-29T01:05:50.008Z,101059.69
2022-07-29T01:10:55.324Z,101049.72
2022-07-29T01:16:06.273Z,101050.72
2022-07-29T01:21:29.965Z,101044.31
2022-07-29T01:26:39.344Z,101038.81
2022-07-29T01:31:56.577Z,101037.56
2022-07-29T01:37:08.915Z,101025.38
2022-07-29T01:42:28.703Z,101021.94
2022-07-29T01:47:41.345Z,101019.53
2022-07-29T01:52:49.067Z,101024.00
2022-07-29T01:57:53.360Z,101014.44
2022-07-29T02:02:58.671Z,101025.38
2022-07-29T02:08:03.322Z,101020.66
2022-07-29T02:13:07.843Z,101014.53
2022-07-29T02:18:17.221Z,101010.03
2022-07-29T02:23:22.786Z,101001.19
2022-07-29T02:28:32.048Z,101009.84
2022-07-29T02:33:37.524Z,101002.75
2022-07-29T02:38:52.379Z,100999.63
2022-07-29T02:43:57.840Z,101005.50
2022-07-29T02:49:06.419Z,101005.31
2022-07-29T02:54:11.216Z,101002.16
2022-07-29T02:59:16.231Z,100994.19
2022-07-29T03:04:21.894Z,101002.97
2022-07-29T03:09:34.991Z,100982.03
2022-07-29T03:14:38.660Z,100989.81
2022-07-29T03:19:44.063Z,100983.22
2022-07-29T03:24:47.511Z,100986.72
2022-07-29T03:29:50.919Z,100973.81
2022-07-29T03:34:55.818Z,100978.16
2022-07-29T03:40:00.162Z,100984.00
2022-07-29T03:45:07.890Z,100983.50
2022-07-29T03:50:14.166Z,100984.06
2022-07-29T03:55:18.284Z,100988.72
2022-07-29T04:00:22.020Z,100991.34
2022-07-29T04:05:27.001Z,100987.03
2022-07-29T04:10:32.220Z,100986.28
2022-07-29T04:15:38.101Z,100983.81
2022-07-29T04:20:43.002Z,100985.22
2022-07-29T04:25:46.564Z,100991.19
2022-07-29T04:30:50.127Z,100988.13
2022-07-29T04:35:55.126Z,100998.38
2022-07-29T04:40:59.312Z,101000.56
2022-07-29T04:46:02.905Z,101000.25
2022-07-29T04:51:07.888Z,100995.78
2022-07-29T04:56:12.551Z,100992.19
2022-07-29T05:01:16.380Z,100988.94
2022-07-29T05:06:21.292Z,101001.38
2022-07-29T05:11:28.652Z,101001.03
2022-07-29T05:16:34.395Z,100992.25
2022-07-29T05:21:40.263Z,100992.94
2022-07-29T05:26:44.150Z,100990.63
2022-07-29T05:31:47.667Z,100988.34
2022-07-29T05:36:52.478Z,100985.38
2022-07-29T05:42:16.151Z,100980.31
2022-07-29T05:47:19.659Z,100986.88
2022-07-29T05:52:24.515Z,100986.59
2022-07-29T05:57:28.050Z,100986.56
2022-07-29T06:02:31.970Z,100989.47
2022-07-29T06:07:36.835Z,100985.63
2022-07-29T06:12:42.321Z,100977.25
2022-07-29T06:18:00.617Z,100973.97
2022-07-29T06:23:06.258Z,100981.38
2022-07-29T06:28:09.775Z,100978.00
2022-07-29T06:33:19.634Z,100970.94
2022-07-29T06:38:30.812Z,100970.09
2022-07-29T06:43:50.730Z,100963.63
2022-07-29T06:48:58.370Z,100957.91
2022-07-29T06:54:03.924Z,100959.06
2022-07-29T06:59:08.000Z,100962.44
2022-07-29T07:04:12.431Z,100969.59
2022-07-29T07:09:17.280Z,100964.03
2022-07-29T07:14:21.305Z,100971.50
2022-07-29T07:19:25.291Z,100960.53
2022-07-29T07:24:30.945Z,100959.66
2022-07-29T07:29:34.676Z,100955.41
2022-07-29T07:34:38.899Z,100958.19
2022-07-29T07:39:44.058Z,100948.59
2022-07-29T07:45:12.192Z,100948.59
2022-07-29T07:50:18.420Z,100953.56
2022-07-29T07:55:24.045Z,100958.66
2022-07-29T08:00:27.831Z,100960.72
2022-07-29T08:05:31.617Z,100970.41
2022-07-29T08:10:56.721Z,100964.81
2022-07-29T08:16:01.468Z,100960.44
2022-07-29T08:21:05.593Z,100959.03
2022-07-29T08:26:11.629Z,100953.53
2022-07-29T08:31:15.770Z,100947.53
2022-07-29T08:36:21.768Z,100955.59
2022-07-29T08:41:26.739Z,100952.09
2022-07-29T08:46:43.676Z,100949.22
2022-07-29T08:51:53.223Z,100963.44
2022-07-29T08:56:58.265Z,100970.78
2022-07-29T09:02:03.049Z,100965.09
2022-07-29T09:07:07.769Z,100967.34
2022-07-29T09:12:13.289Z,100961.56
2022-07-29T09:17:51.539Z,100954.72
2022-07-29T09:22:55.446Z,100947.97
2022-07-29T09:28:07.850Z,100951.75
2022-07-29T09:33:11.410Z,100939.34
2022-07-29T09:38:15.354Z,100925.63
2022-07-29T09:43:20.217Z,100928.75
2022-07-29T09:48:25.814Z,100925.63
2022-07-29T09:53:33.815Z,100921.97
2022-07-29T09:58:38.618Z,100923.53
2022-07-29T10:03:52.985Z,100908.53
2022-07-29T10:08:56.463Z,100913.50
2022-07-29T10:14:04.500Z,100913.94
2022-07-29T10:19:08.091Z,100904.13
2022-07-29T10:24:15.102Z,100903.31
2022-07-29T10:29:20.110Z,100911.31
2022-07-29T10:34:33.708Z,100907.25
2022-07-29T10:39:49.571Z,100904.75
2022-07-29T10:44:55.351Z,100902.47
2022-07-29T10:50:01.659Z,100895.16
2022-07-29T10:55:05.843Z,100894.06
2022-07-29T11:00:30.750Z,100896.66
2022-07-29T11:05:53.799Z,100898.47
2022-07-29T11:11:43.923Z,100890.25
2022-07-29T11:17:06.023Z,100892.50
2022-07-29T11:22:11.393Z,100890.16
2022-07-29T11:27:18.146Z,100888.22
2022-07-29T11:32:29.429Z,100877.81
2022-07-29T11:38:33.501Z,100887.19
2022-07-29T11:43:50.729Z,100882.56
2022-07-29T11:48:54.576Z,100885.00
2022-07-29T11:54:04.261Z,100879.09
2022-07-29T11:59:10.878Z,100871.28
2022-07-29T12:04:19.037Z,100873.09
2022-07-29T12:09:25.447Z,100871.06
2022-07-29T12:14:33.312Z,100860.59
2022-07-29T12:19:44.456Z,100863.28
2022-07-29T12:24:48.276Z,100855.56
2022-07-29T12:30:00.651Z,100846.63
2022-07-29T12:35:06.414Z,100849.31
2022-07-29T12:40:11.503Z,100851.63
2022-07-29T12:45:17.443Z,100840.78
2022-07-29T12:50:25.884Z,100834.84
2022-07-29T12:55:49.725Z,100838.44
2022-07-29T13:01:06.087Z,100833.22
2022-07-29T13:06:35.907Z,100826.22
2022-07-29T13:11:46.535Z,100830.34
2022-07-29T13:17:07.764Z,100820.53
2022-07-29T13:22:11.917Z,100819.72
2022-07-29T13:27:16.111Z,100818.84
2022-07-29T13:32:28.721Z,100815.09
2022-07-29T13:37:34.865Z,100806.19
2022-07-29T13:42:38.386Z,100787.50
2022-07-29T13:47:49.295Z,100795.59
2022-07-29T13:52:53.555Z,100791.03
2022-07-29T13:57:57.010Z,100765.91
2022-07-29T14:03:01.969Z,100768.63
2022-07-29T14:08:05.957Z,100772.19
2022-07-29T14:13:24.491Z,100756.72
2022-07-29T14:18:30.731Z,100761.75
2022-07-29T14:23:34.264Z,100767.06
2022-07-29T14:28:41.708Z,100755.94
2022-07-29T14:33:48.469Z,100765.78
2022-07-29T14:38:52.846Z,100777.81
2022-07-29T14:43:56.653Z,100763.75
2022-07-29T14:49:01.727Z,100748.59
2022-07-29T14:54:05.370Z,100749.97
2022-07-29T14:59:08.787Z,100763.25
2022-07-29T15:04:13.599Z,100754.88
2022-07-29T15:09:17.080Z,100769.78
2022-07-29T15:14:20.539Z,100759.44
2022-07-29T15:19:25.404Z,100762.78
2022-07-29T15:24:28.968Z,100759.97
2022-07-29T15:29:32.476Z,100759.13
2022-07-29T15:34:38.331Z,100748.22
2022-07-29T15:39:41.764Z,100737.72
2022-07-29T15:44:45.386Z,100744.16
2022-07-29T15:49:50.593Z,100733.38
2022-07-29T15:54:54.619Z,100725.91
2022-07-29T15:59:58.206Z,100733.81
2022-07-29T16:05:03.062Z,100729.50
2022-07-29T16:10:07.862Z,100733.81
2022-07-29T16:15:11.668Z,100728.94
2022-07-29T16:20:16.584Z,100733.53
2022-07-29T16:25:20.580Z,100715.63
2022-07-29T16:30:24.091Z,100708.81
2022-07-29T16:35:39.591Z,100710.03
2022-07-29T16:40:43.507Z,100713.94
2022-07-29T16:45:47.046Z,100721.59
2022-07-29T16:50:52.352Z,100713.31
2022-07-29T16:55:55.796Z,100720.81
2022-07-29T17:00:59.361Z,100713.38
2022-07-29T17:06:04.466Z,100714.94
2022-07-29T17:11:07.893Z,100723.28
2022-07-29T17:16:11.445Z,100722.38
2022-07-29T17:21:17.349Z,100712.59
2022-07-29T17:26:21.108Z,100713.19
2022-07-29T17:31:24.644Z,100705.22
2022-07-29T17:36:29.506Z,100708.31
2022-07-29T17:41:32.992Z,100702.81
2022-07-29T17:46:36.544Z,100703.56
2022-07-29T17:51:41.443Z,100708.19
2022-07-29T17:56:44.953Z,100703.41
2022-07-29T18:01:48.427Z,100707.31
2022-07-29T18:06:53.911Z,100718.03
2022-07-29T18:11:57.404Z,100711.41
2022-07-29T18:17:01.271Z,100709.50
2022-07-29T18:22:07.385Z,100721.44
2022-07-29T18:27:10.967Z,100719.97
2022-07-29T18:32:14.503Z,100725.09
2022-07-29T18:37:19.340Z,100727.50
2022-07-29T18:42:42.731Z,100726.66
2022-07-29T18:47:48.891Z,100726.09
2022-07-29T18:52:54.933Z,100733.59
2022-07-29T18:57:58.444Z,100731.34
2022-07-29T19:03:03.112Z,100736.81
2022-07-29T19:08:08.189Z,100730.81
2022-07-29T19:13:13.374Z,100741.16
2022-07-29T19:18:17.186Z,100735.22
2022-07-29T19:23:21.951Z,100750.56
2022-07-29T19:28:25.459Z,100751.91
2022-07-29T19:33:28.997Z,100748.19
2022-07-29T19:38:34.027Z,100762.44
2022-07-29T19:43:51.239Z,100763.75
2022-07-29T19:48:57.187Z,100777.81
2022-07-29T19:54:02.110Z,100785.22
2022-07-29T19:59:05.788Z,100789.88
2022-07-29T20:04:10.851Z,100787.31
2022-07-29T20:09:20.457Z,100811.16
2022-07-29T20:14:24.519Z,100824.22
2022-07-29T20:19:28.398Z,100831.69
2022-07-29T20:24:33.197Z,100834.25
2022-07-29T20:29:36.832Z,100829.38
2022-07-29T20:34:41.150Z,100824.16
2022-07-29T20:39:47.817Z,100831.94
2022-07-29T20:44:53.503Z,100835.81
2022-07-29T20:49:57.018Z,100848.91
2022-07-29T20:55:02.374Z,100849.97
2022-07-29T21:00:07.127Z,100842.41
2022-07-29T21:05:11.102Z,100838.44
2022-07-29T21:10:18.156Z,100854.75
2022-07-29T21:15:21.929Z,100850.72
2022-07-29T21:20:25.685Z,100859.25
2022-07-29T21:25:30.598Z,100861.88
2022-07-29T21:30:34.223Z,100866.13
2022-07-29T21:36:06.144Z,100880.97
2022-07-29T21:41:02.769Z,100873.13
2022-07-29T21:46:06.522Z,100879.59
2022-07-29T21:51:09.941Z,100891.25
2022-07-29T21:56:15.261Z,100903.75
2022-07-29T22:01:21.564Z,100909.13
2022-07-29T22:06:25.038Z,100909.63
2022-07-29T22:11:29.964Z,100910.28
2022-07-29T22:16:33.482Z,100905.47
2022-07-29T22:21:37.127Z,100897.94
2022-07-29T22:26:42.132Z,100881.66
2022-07-29T22:31:45.744Z,100880.53
2022-07-29T22:36:49.373Z,100878.31
2022-07-29T22:41:54.147Z,100877.91
2022-07-29T22:46:58.022Z,100876.91
2022-07-29T22:52:01.802Z,100874.81
2022-07-29T22:57:07.309Z,100871.47
2022-07-29T23:02:10.868Z,100886.81
2022-07-29T23:07:14.347Z,100870.41
2022-07-29T23:12:19.155Z,100875.97
2022-07-29T23:17:22.942Z,100876.50
2022-07-29T23:22:26.480Z,100882.41
2022-07-29T23:27:32.335Z,100875.44
2022-07-29T23:32:35.853Z,100879.16
2022-07-29T23:37:39.690Z,100887.25
2022-07-29T23:42:44.626Z,100892.13
2022-07-29T23:47:48.185Z,100881.88
2022-07-29T23:52:51.672Z,100882.38
2022-07-29T23:57:56.494Z,100874.59
